Time;durP1;ratioP1;P1;durP2;ratioP2;P2;SDS_P1;SDS_P2;PMS_P1;PMS_P2;Temp;Humidity;BMP_temperature;BMP_pressure;BME280_temperature;BME280_humidity;BME280_pressure;Samples;Min_cycle;Max_cycle;Signal;HPM_P1;HPM_P2
2023/02/28 00:00:09;;;;;;;15.27;6.13;;;;;;;-1.78;90.94;102733.34;4974425;28;20397;-81
2023/02/28 00:02:36;;;;;;;14.63;6.30;;;;;;;-1.80;90.76;102740.16;4972772;28;20030;-80
2023/02/28 00:05:03;;;;;;;10.55;5.97;;;;;;;-1.83;90.91;102733.44;4984835;28;20031;-81
2023/02/28 00:07:30;;;;;;;18.15;6.97;;;;;;;-1.85;90.93;102732.59;4973861;28;20034;-81
2023/02/28 00:09:55;;;;;;;16.83;7.22;;;;;;;-1.88;91.31;102732.69;4989126;28;20126;-81
2023/02/28 00:12:21;;;;;;;15.82;7.35;;;;;;;-1.90;91.33;102734.41;4971794;28;20035;-81
2023/02/28 00:14:46;;;;;;;15.35;6.57;;;;;;;-1.91;91.82;102732.72;4965976;28;20037;-80
2023/02/28 00:17:12;;;;;;;11.77;6.15;;;;;;;-1.92;91.67;102727.66;4959008;28;20059;-81
2023/02/28 00:19:37;;;;;;;16.63;8.07;;;;;;;-1.88;91.73;102726.75;4979418;28;20029;-80
2023/02/28 00:22:03;;;;;;;17.60;7.05;;;;;;;-1.90;91.62;102726.78;4984680;28;20038;-80
2023/02/28 00:24:28;;;;;;;18.63;7.07;;;;;;;-1.94;91.73;102737.03;4972579;28;20103;-80
2023/02/28 00:26:54;;;;;;;13.57;6.88;;;;;;;-1.96;92.13;102732.81;4957235;28;20058;-80
2023/02/28 00:29:19;;;;;;;16.33;6.63;;;;;;;-1.96;92.18;102744.69;4956339;28;20045;-80
2023/02/28 00:31:45;;;;;;;10.90;6.07;;;;;;;-1.99;92.25;102743.03;4977700;28;20046;-80
2023/02/28 00:34:10;;;;;;;14.80;6.13;;;;;;;-2.00;92.55;102743.94;4972672;28;20046;-80
2023/02/28 00:36:36;;;;;;;14.68;7.40;;;;;;;-2.01;92.77;102739.69;4972150;28;20042;-81
2023/02/28 00:39:03;;;;;;;14.57;7.32;;;;;;;-2.03;92.79;102730.44;4952725;28;20031;-80
2023/02/28 00:41:29;;;;;;;14.57;6.55;;;;;;;-2.06;92.95;102738.94;4952204;28;20111;-80
2023/02/28 00:43:54;;;;;;;15.95;6.82;;;;;;;-2.08;92.91;102742.38;4970138;28;20039;-80
2023/02/28 00:46:21;;;;;;;12.20;6.20;;;;;;;-2.13;93.09;102739.06;4951443;28;20130;-81
2023/02/28 00:48:46;;;;;;;14.63;6.47;;;;;;;-2.14;92.96;102739.94;4971994;28;20416;-81
2023/02/28 00:51:12;;;;;;;13.30;6.68;;;;;;;-2.17;93.21;102740.81;4962971;28;20101;-80
2023/02/28 00:53:37;;;;;;;14.43;7.47;;;;;;;-2.20;92.87;102736.63;4970506;28;20045;-80
2023/02/28 00:56:03;;;;;;;13.73;7.00;;;;;;;-2.24;93.07;102737.56;4968789;28;20035;-80
2023/02/28 00:58:28;;;;;;;15.35;6.40;;;;;;;-2.26;93.28;102746.06;4987109;28;20026;-79
2023/02/28 01:00:54;;;;;;;13.30;7.00;;;;;;;-2.30;93.50;102747.81;4971794;28;20505;-80
2023/02/28 01:03:20;;;;;;;17.25;7.35;;;;;;;-2.33;93.63;102744.50;4978347;28;20489;-81
2023/02/28 01:05:46;;;;;;;16.55;6.50;;;;;;;-2.35;93.76;102747.06;4954394;28;20371;-81
2023/02/28 01:08:13;;;;;;;17.35;7.00;;;;;;;-2.37;93.96;102747.06;4970974;28;20501;-80
2023/02/28 01:10:39;;;;;;;17.05;7.35;;;;;;;-2.38;94.15;102745.38;4970366;28;20065;-81
2023/02/28 01:13:06;;;;;;;16.27;7.60;;;;;;;-2.40;94.38;102743.75;4968548;28;20034;-81
2023/02/28 01:15:32;;;;;;;18.95;7.30;;;;;;;-2.41;94.72;102745.47;4971452;28;20031;-81
2023/02/28 01:17:57;;;;;;;16.17;6.55;;;;;;;-2.42;94.72;102746.31;4979210;28;20061;-81
2023/02/28 01:20:23;;;;;;;19.17;8.02;;;;;;;-2.43;94.63;102743.78;4982736;28;20142;-80
2023/02/28 01:22:49;;;;;;;16.40;7.22;;;;;;;-2.45;95.13;102748.06;4950116;28;20031;-81
2023/02/28 01:25:15;;;;;;;16.17;7.13;;;;;;;-2.48;95.17;102748.94;4953682;28;20041;-80
2023/02/28 01:27:41;;;;;;;14.45;7.15;;;;;;;-2.48;95.38;102736.25;4969515;28;20500;-81
2023/02/28 01:30:08;;;;;;;16.58;7.63;;;;;;;-2.49;95.54;102741.34;4956552;28;20035;-81
2023/02/28 01:32:35;;;;;;;17.75;7.75;;;;;;;-2.52;95.56;102733.75;4969649;28;20030;-80
2023/02/28 01:35:00;;;;;;;15.10;7.43;;;;;;;-2.52;95.39;102741.38;4968309;28;20049;-80
2023/02/28 01:37:26;;;;;;;19.92;7.45;;;;;;;-2.53;95.76;102744.81;4971500;28;20030;-79
2023/02/28 01:39:52;;;;;;;15.75;7.10;;;;;;;-2.56;96.19;102735.53;4988220;28;20035;-78
2023/02/28 01:42:19;;;;;;;17.38;7.40;;;;;;;-2.57;95.93;102736.38;4969960;28;20038;-82
2023/02/28 01:44:59;;;;;;;18.35;7.20;;;;;;;-2.60;95.81;102742.38;4983709;28;20084;-81
2023/02/28 01:47:34;;;;;;;16.08;7.35;;;;;;;-2.64;96.14;102738.16;4982979;28;20082;-81
2023/02/28 01:50:02;;;;;;;18.80;7.95;;;;;;;-2.66;96.22;102737.34;4983358;28;20104;-81
2023/02/28 01:52:31;;;;;;;15.18;7.55;;;;;;;-2.67;96.11;102727.25;4969199;28;20034;-82
2023/02/28 01:54:59;;;;;;;15.32;7.35;;;;;;;-2.69;96.38;102728.94;4985393;28;20093;-81
2023/02/28 01:57:37;;;;;;;18.92;7.60;;;;;;;-2.68;96.46;102725.56;4985206;28;20066;-82
2023/02/28 02:00:08;;;;;;;13.48;7.45;;;;;;;-2.71;96.72;102726.44;4971898;28;20045;-81
2023/02/28 02:02:38;;;;;;;13.32;7.90;;;;;;;-2.73;96.47;102723.09;4982002;28;20031;-82
2023/02/28 02:05:08;;;;;;;18.08;6.60;;;;;;;-2.72;96.71;102722.22;4967754;28;20051;-79
2023/02/28 02:07:37;;;;;;;18.48;7.50;;;;;;;-2.67;96.90;102724.72;4968807;28;20093;-81
2023/02/28 02:10:26;;;;;;;15.73;6.63;;;;;;;-2.68;96.89;102712.84;4986263;28;20034;-81
2023/02/28 02:13:01;;;;;;;16.92;6.68;;;;;;;-2.70;96.75;102717.94;4967582;28;20030;-81
2023/02/28 02:15:29;;;;;;;13.25;6.70;;;;;;;-2.72;96.75;102712.06;4984355;28;20051;-80
2023/02/28 02:18:00;;;;;;;15.13;7.05;;;;;;;-2.76;97.12;102716.34;4990389;28;20038;-81
2023/02/28 02:21:05;;;;;;;11.55;6.45;;;;;;;-2.79;97.25;102713.88;4968564;28;20035;-80
2023/02/28 02:23:49;;;;;;;;;;;;;;;-2.78;97.33;102717.25;4988095;28;20045;-80
2023/02/28 02:26:54;;;;;;;16.60;6.53;;;;;;;-2.78;97.33;102712.16;4977072;28;19960;-81
2023/02/28 02:29:40;;;;;;;23.85;6.78;;;;;;;-2.74;97.64;102712.06;4953211;28;20073;-80
2023/02/28 02:32:30;;;;;;;14.02;5.93;;;;;;;-2.72;97.72;102716.31;4955106;28;20039;-80
2023/02/28 02:35:28;;;;;;;21.45;7.00;;;;;;;-2.65;97.97;102712.81;4956940;28;20047;-81
2023/02/28 02:38:26;;;;;;;15.32;6.30;;;;;;;-2.68;97.58;102713.69;4972213;28;20042;-80
2023/02/28 02:41:16;;;;;;;15.27;6.43;;;;;;;-2.64;97.76;102712.75;4980112;28;20050;-80
2023/02/28 02:43:54;;;;;;;12.82;5.50;;;;;;;-2.68;97.74;102716.22;4970386;28;20042;-80
2023/02/28 02:46:25;;;;;;;14.88;6.32;;;;;;;-2.59;97.51;102712.72;4970419;28;20391;-80
2023/02/28 02:48:54;;;;;;;15.70;6.72;;;;;;;-2.63;97.36;102711.91;4979011;28;20047;-81
2023/02/28 02:51:24;;;;;;;14.25;6.38;;;;;;;-2.70;97.43;102712.88;4988979;28;20039;-80
2023/02/28 02:53:59;;;;;;;14.35;5.95;;;;;;;-2.67;97.68;102712.84;4979705;28;20035;-81
2023/02/28 02:56:28;;;;;;;11.35;5.88;;;;;;;-2.68;97.95;102708.59;4973922;28;20110;-81
2023/02/28 02:59:01;;;;;;;13.15;6.00;;;;;;;-2.69;97.71;102706.94;4973292;28;20110;-79
2023/02/28 03:01:28;;;;;;;;;;;;;;;-2.73;97.75;102702.78;4971936;28;20091;-81
2023/02/28 03:04:04;;;;;;;11.82;5.88;;;;;;;-2.81;97.54;102710.47;4988412;28;19950;-80
2023/02/28 03:06:29;;;;;;;14.50;6.38;;;;;;;-2.86;97.90;102707.19;4974037;28;20039;-78
2023/02/28 03:08:54;;;;;;;15.27;5.55;;;;;;;-2.90;98.15;102702.16;4972572;28;20027;-80
2023/02/28 03:11:22;;;;;;;15.88;6.57;;;;;;;-2.91;97.77;102705.59;4974751;28;20045;-79
2023/02/28 03:14:16;;;;;;;12.95;5.78;;;;;;;-2.96;98.01;102708.19;4985662;28;20158;-81
2023/02/28 03:17:09;;;;;;;13.05;5.85;;;;;;;-2.98;98.03;102694.66;4961202;28;20946;-81
2023/02/28 03:19:52;;;;;;;13.10;5.15;;;;;;;-3.01;98.33;102695.56;4992770;28;20059;-81
2023/02/28 03:22:30;;;;;;;11.48;5.95;;;;;;;-3.03;98.14;102692.22;4953053;28;20498;-80
2023/02/28 03:25:16;;;;;;;11.95;6.53;;;;;;;-3.04;98.18;102703.22;4993059;28;20061;-80
2023/02/28 03:28:02;;;;;;;9.00;5.47;;;;;;;-3.07;98.12;102693.13;4974309;28;20105;-80
2023/02/28 03:30:46;;;;;;;14.75;5.15;;;;;;;-3.10;98.37;102690.63;4975985;28;20042;-80
2023/02/28 03:33:18;;;;;;;13.48;6.20;;;;;;;-3.11;98.47;102688.09;4959809;28;20543;-80
2023/02/28 03:35:52;;;;;;;12.30;6.13;;;;;;;-3.15;98.34;102692.38;4977711;28;20067;-78
2023/02/28 03:38:24;;;;;;;16.38;7.18;;;;;;;-3.18;98.32;102693.25;4977208;28;20027;-79
2023/02/28 03:41:00;;;;;;;17.80;7.10;;;;;;;-3.21;98.63;102688.22;4949942;28;20047;-80
2023/02/28 03:43:31;;;;;;;16.05;6.70;;;;;;;-3.22;98.78;102698.38;4976969;28;20035;-80
2023/02/28 03:46:02;;;;;;;19.75;6.93;;;;;;;-3.26;98.71;102702.66;4958542;28;20039;-79
2023/02/28 03:48:52;;;;;;;18.98;7.85;;;;;;;-3.31;98.60;102701.91;4974856;28;20050;-79
2023/02/28 03:51:22;;;;;;;18.45;7.78;;;;;;;-3.32;98.49;102710.34;4973981;28;20034;-80
2023/02/28 03:53:54;;;;;;;15.10;7.70;;;;;;;-3.36;98.96;102704.47;4975753;28;20045;-80
2023/02/28 03:56:30;;;;;;;;;;;;;;;-3.38;98.82;102710.44;4976423;28;20046;-79
2023/02/28 03:59:15;;;;;;;17.00;7.47;;;;;;;-3.40;98.71;102704.56;4967965;28;19969;-80
2023/02/28 04:01:43;;;;;;;16.83;7.85;;;;;;;-3.41;99.22;102706.25;4988114;28;20038;-79
2023/02/28 04:04:11;;;;;;;22.17;8.23;;;;;;;-3.42;99.38;102707.09;4974268;28;20073;-80
2023/02/28 04:06:37;;;;;;;19.77;7.10;;;;;;;-3.45;99.53;102706.28;4980632;28;20045;-79
2023/02/28 04:09:04;;;;;;;16.63;7.30;;;;;;;-3.46;99.55;102704.63;4976025;28;20543;-78
2023/02/28 04:11:43;;;;;;;20.65;7.18;;;;;;;-3.42;100.00;102707.09;4990881;28;20642;-79
2023/02/28 04:14:10;;;;;;;20.45;7.28;;;;;;;-3.40;100.00;102704.56;4962805;28;20062;-79
2023/02/28 04:16:38;;;;;;;20.40;7.93;;;;;;;-3.33;100.00;102706.16;4988193;28;20595;-79
2023/02/28 04:19:05;;;;;;;15.98;7.13;;;;;;;-3.32;100.00;102713.72;4973306;28;20052;-78
2023/02/28 04:21:38;;;;;;;17.35;7.80;;;;;;;-3.36;100.00;102714.63;4988086;28;20113;-78
2023/02/28 04:24:05;;;;;;;19.08;7.55;;;;;;;-3.38;100.00;102711.28;4975849;28;20038;-79
2023/02/28 04:26:35;;;;;;;16.05;7.40;;;;;;;-3.42;100.00;102719.78;4955788;28;20070;-78
2023/02/28 04:29:02;;;;;;;17.65;7.85;;;;;;;-3.40;100.00;102722.31;4996635;28;20031;-79
2023/02/28 04:31:28;;;;;;;23.70;8.25;;;;;;;-3.42;100.00;102731.63;4973717;28;20097;-79
2023/02/28 04:33:53;;;;;;;17.20;8.00;;;;;;;-3.48;100.00;102717.34;4988601;28;20596;-79
2023/02/28 04:36:19;;;;;;;17.80;8.07;;;;;;;-3.50;100.00;102726.66;4974249;28;20043;-80
2023/02/28 04:38:45;;;;;;;16.52;7.03;;;;;;;-3.54;100.00;102725.84;4978617;28;20038;-79
2023/02/28 04:41:14;;;;;;;20.45;6.90;;;;;;;-3.56;100.00;102725.03;4973581;28;20047;-79
2023/02/28 04:43:39;;;;;;;17.35;7.05;;;;;;;-3.59;100.00;102721.69;4988772;28;20030;-78
2023/02/28 04:46:06;;;;;;;14.05;6.68;;;;;;;-3.60;100.00;102725.94;4974571;28;20034;-78
2023/02/28 04:48:34;;;;;;;16.27;7.55;;;;;;;-3.62;100.00;102724.25;4957274;28;20124;-77
2023/02/28 04:51:08;;;;;;;18.58;7.93;;;;;;;-3.64;100.00;102725.97;4974713;28;20067;-79
2023/02/28 04:53:35;;;;;;;19.40;7.53;;;;;;;-3.66;100.00;102732.75;4974560;28;20062;-79
2023/02/28 04:56:00;;;;;;;19.42;8.40;;;;;;;-3.67;100.00;102726.00;4987989;28;20049;-78
2023/02/28 04:58:27;;;;;;;18.70;7.22;;;;;;;-3.66;100.00;102737.81;4958740;28;20031;-78
2023/02/28 05:00:53;;;;;;;20.48;7.18;;;;;;;-3.67;100.00;102731.94;4956373;28;20047;-78
2023/02/28 05:03:20;;;;;;;14.63;7.07;;;;;;;-3.58;100.00;102734.38;4989964;28;20393;-77
2023/02/28 05:05:46;;;;;;;17.20;7.10;;;;;;;-3.59;99.92;102732.66;4957575;28;20039;-78
2023/02/28 05:08:12;;;;;;;14.95;6.07;;;;;;;-3.63;99.77;102735.28;4974700;28;20039;-78
2023/02/28 05:10:37;;;;;;;12.75;5.93;;;;;;;-3.61;99.73;102728.47;4949755;28;20142;-78
2023/02/28 05:13:03;;;;;;;12.88;5.18;;;;;;;-3.61;99.74;102734.38;4958709;28;20041;-78
2023/02/28 05:15:28;;;;;;;13.85;5.13;;;;;;;-3.62;99.25;102726.78;4971429;28;20042;-77
2023/02/28 05:17:54;;;;;;;12.63;4.70;;;;;;;-3.65;99.41;102725.13;4982414;28;20038;-77
2023/02/28 05:20:20;;;;;;;15.60;5.47;;;;;;;-3.68;99.21;102737.84;4975686;28;20061;-78
2023/02/28 05:22:46;;;;;;;11.70;4.80;;;;;;;-3.71;99.01;102737.91;4974795;28;20030;-78
2023/02/28 05:25:16;;;;;;;12.88;5.15;;;;;;;-3.73;99.12;102729.44;4972240;28;20085;-78
2023/02/28 05:27:41;;;;;;;14.88;4.72;;;;;;;-3.76;98.73;102743.00;4982077;28;20046;-78
2023/02/28 05:30:10;;;;;;;12.55;5.35;;;;;;;-3.78;98.96;102736.28;4988161;28;20027;-78
2023/02/28 05:32:42;;;;;;;11.48;4.70;;;;;;;-3.78;98.69;102739.63;4970261;28;20486;-78
2023/02/28 05:35:09;;;;;;;12.77;4.85;;;;;;;-3.78;98.24;102746.41;4974062;28;20053;-78
2023/02/28 05:37:35;;;;;;;13.43;4.65;;;;;;;-3.82;98.26;102744.78;4969478;28;20477;-78
2023/02/28 05:40:01;;;;;;;9.65;4.28;;;;;;;-3.85;98.22;102747.31;4983873;28;20038;-77
2023/02/28 05:42:27;;;;;;;12.25;4.72;;;;;;;-3.88;98.36;102755.81;4974353;28;20044;-78
2023/02/28 05:44:52;;;;;;;14.07;4.88;;;;;;;-3.89;98.47;102750.75;4971220;28;20466;-77
2023/02/28 05:47:17;;;;;;;13.63;4.75;;;;;;;-3.87;98.54;102756.66;4958200;28;20046;-77
2023/02/28 05:49:43;;;;;;;9.98;4.90;;;;;;;-3.77;98.26;102758.22;4969855;28;20093;-77
2023/02/28 05:52:08;;;;;;;10.20;4.70;;;;;;;-3.73;98.05;102755.66;4976668;28;20054;-78
2023/02/28 05:54:34;;;;;;;7.70;4.20;;;;;;;-3.74;97.37;102751.44;4961760;28;20038;-77
2023/02/28 05:56:59;;;;;;;9.52;4.50;;;;;;;-3.72;97.16;102753.94;4979548;28;20042;-77
2023/02/28 05:59:25;;;;;;;15.50;5.20;;;;;;;-3.73;97.11;102749.72;4983197;28;20030;-80
2023/02/28 06:01:52;;;;;;;7.50;4.32;;;;;;;-3.74;96.81;102756.50;4979950;28;20744;-78
2023/02/28 06:04:20;;;;;;;13.05;4.00;;;;;;;-3.76;96.62;102760.75;4973958;28;20498;-77
2023/02/28 06:06:46;;;;;;;10.27;3.83;;;;;;;-3.79;96.87;102762.47;4978195;28;20440;-77
2023/02/28 06:09:12;;;;;;;12.18;4.20;;;;;;;-3.81;96.76;102762.47;4976054;28;20035;-79
2023/02/28 06:11:38;;;;;;;12.05;4.15;;;;;;;-3.83;96.68;102763.34;4989614;28;20413;-77
2023/02/28 06:14:04;;;;;;;9.75;4.60;;;;;;;-3.89;96.72;102764.25;4976280;28;20026;-77
2023/02/28 06:16:32;;;;;;;12.02;4.38;;;;;;;-3.93;97.14;102765.97;4978831;28;20500;-77
2023/02/28 06:18:59;;;;;;;8.43;4.03;;;;;;;-3.94;97.09;102773.59;4974564;28;20046;-77
2023/02/28 06:21:24;;;;;;;11.68;4.68;;;;;;;-3.95;96.76;102771.94;4989361;28;20034;-76
2023/02/28 06:23:50;;;;;;;7.18;4.25;;;;;;;-3.96;96.95;102768.53;4992140;28;20104;-77
2023/02/28 06:26:16;;;;;;;10.88;4.47;;;;;;;-3.92;97.42;102780.34;4979546;28;20046;-77
2023/02/28 06:28:41;;;;;;;14.40;5.03;;;;;;;-3.82;97.09;102770.97;4984451;28;20034;-77
2023/02/28 06:31:12;;;;;;;8.20;3.92;;;;;;;-3.82;96.64;102776.03;4981126;28;20105;-77
2023/02/28 06:33:39;;;;;;;10.20;4.68;;;;;;;-3.74;96.59;102775.94;4988753;28;20089;-76
2023/02/28 06:36:06;;;;;;;13.25;4.35;;;;;;;-3.67;96.10;102779.25;4975130;28;20551;-77
2023/02/28 06:38:32;;;;;;;13.27;4.20;;;;;;;-3.66;95.88;102786.00;4958183;28;20086;-77
2023/02/28 06:40:59;;;;;;;13.88;5.00;;;;;;;-3.59;95.46;102778.31;4985297;28;20425;-77
2023/02/28 06:43:27;;;;;;;10.25;4.72;;;;;;;-3.60;95.30;102780.88;4974253;28;20026;-76
2023/02/28 06:45:58;;;;;;;12.15;4.72;;;;;;;-3.53;94.29;102783.31;4971347;28;20035;-77
2023/02/28 06:48:25;;;;;;;18.83;4.93;;;;;;;-3.49;94.38;102788.38;4975961;28;20026;-76
2023/02/28 06:50:51;;;;;;;9.70;5.03;;;;;;;-3.32;93.29;102783.94;4992607;28;20035;-77
2023/02/28 06:53:16;;;;;;;16.30;5.38;;;;;;;-3.20;91.83;102799.03;4963157;28;20549;-76
2023/02/28 06:55:41;;;;;;;8.40;4.05;;;;;;;-3.09;91.04;102791.28;4961920;28;20489;-77
2023/02/28 06:58:18;;;;;;;14.15;4.65;;;;;;;-2.97;90.77;102787.75;4974348;28;20423;-77
2023/02/28 07:00:45;;;;;;;15.40;4.50;;;;;;;-3.01;90.19;102786.13;4978666;28;20034;-76
2023/02/28 07:03:12;;;;;;;11.65;4.45;;;;;;;-3.02;90.44;102787.81;4953810;28;20034;-77
2023/02/28 07:05:38;;;;;;;13.40;4.93;;;;;;;-2.97;90.07;102792.84;4971937;28;20038;-77
2023/02/28 07:08:05;;;;;;;7.00;4.22;;;;;;;-2.94;90.01;102793.63;4968912;28;20045;-77
2023/02/28 07:10:36;;;;;;;14.13;4.55;;;;;;;-2.98;90.73;102794.50;4971475;28;20311;-77
2023/02/28 07:13:04;;;;;;;17.73;4.63;;;;;;;-2.92;90.52;102801.22;4988426;28;20033;-77
2023/02/28 07:15:29;;;;;;;8.50;4.15;;;;;;;-2.91;90.49;102792.75;4976533;28;20043;-78
2023/02/28 07:17:56;;;;;;;13.90;4.32;;;;;;;-2.93;90.63;102791.94;4957999;28;20046;-76
2023/02/28 07:20:22;;;;;;;12.23;4.28;;;;;;;-2.90;90.72;102796.97;4957934;28;20039;-76
2023/02/28 07:22:54;;;;;;;10.95;4.13;;;;;;;-2.86;90.71;102795.22;4959691;28;20026;-77
2023/02/28 07:25:22;;;;;;;11.05;4.75;;;;;;;-2.79;90.60;102801.91;4970435;28;20051;-75
2023/02/28 07:27:47;;;;;;;10.93;4.78;;;;;;;-2.66;89.75;102798.31;4956288;28;20730;-78
2023/02/28 07:30:13;;;;;;;8.65;3.60;;;;;;;-2.48;88.72;102798.94;4953800;28;20046;-77
2023/02/28 07:32:39;;;;;;;10.00;4.40;;;;;;;-2.17;87.37;102797.59;4973905;28;20041;-76
2023/02/28 07:35:04;;;;;;;9.48;4.50;;;;;;;-1.77;85.70;102796.09;4976044;28;20227;-77
2023/02/28 07:37:36;;;;;;;13.10;3.90;;;;;;;-1.46;83.40;102788.69;4978217;28;20039;-76
2023/02/28 07:40:06;;;;;;;30.55;8.75;;;;;;;-1.07;81.01;102796.41;4976479;28;20030;-78
2023/02/28 07:42:32;;;;;;;16.25;4.90;;;;;;;-0.69;80.27;102802.41;4988495;28;20174;-77
2023/02/28 07:44:58;;;;;;;8.30;3.75;;;;;;;-0.28;77.43;102797.22;4971762;28;20035;-77
2023/02/28 07:47:24;;;;;;;11.95;3.88;;;;;;;0.07;74.18;102796.34;4959209;28;20089;-78
2023/02/28 07:49:50;;;;;;;8.93;3.95;;;;;;;0.41;73.12;102803.09;4969193;28;20030;-79
2023/02/28 07:52:16;;;;;;;8.10;3.55;;;;;;;0.57;71.75;102799.28;4969857;28;20050;-78
2023/02/28 07:54:42;;;;;;;6.88;3.05;;;;;;;0.75;70.48;102805.59;4977970;28;20042;-79
2023/02/28 07:57:08;;;;;;;6.68;3.20;;;;;;;0.99;69.30;102800.66;4975559;28;20042;-79
2023/02/28 07:59:33;;;;;;;9.52;3.50;;;;;;;1.14;69.18;102805.31;4956276;28;20030;-79
2023/02/28 08:01:59;;;;;;;8.07;3.67;;;;;;;1.20;66.84;102804.28;4973136;28;20042;-80
2023/02/28 08:04:25;;;;;;;6.82;3.40;;;;;;;1.44;66.90;102814.66;4978355;28;20034;-80
2023/02/28 08:06:53;;;;;;;8.70;2.97;;;;;;;1.34;64.72;102809.81;4978315;28;20046;-80
2023/02/28 08:09:19;;;;;;;9.05;3.20;;;;;;;1.31;64.57;102809.06;4961304;28;20042;-81
2023/02/28 08:11:45;;;;;;;6.15;2.90;;;;;;;1.62;62.27;102813.22;4955858;28;20047;-81
2023/02/28 08:14:10;;;;;;;6.57;3.17;;;;;;;1.39;62.39;102812.22;4973967;28;20050;-81
2023/02/28 08:16:36;;;;;;;4.80;2.88;;;;;;;1.77;61.26;102806.78;4996414;28;20042;-82
2023/02/28 08:19:02;;;;;;;6.63;3.17;;;;;;;2.12;60.38;102814.13;4993631;28;20125;-81
2023/02/28 08:21:30;;;;;;;8.25;3.03;;;;;;;2.43;58.63;102815.66;4972314;28;20116;-81
2023/02/28 08:23:56;;;;;;;5.05;2.92;;;;;;;2.90;57.82;102813.09;4957201;28;20026;-81
2023/02/28 08:26:22;;;;;;;4.97;3.00;;;;;;;3.01;57.12;102812.69;4988222;28;20030;-82
2023/02/28 08:28:48;;;;;;;14.27;4.97;;;;;;;3.39;56.66;102810.41;4971649;28;20038;-79
2023/02/28 08:31:15;;;;;;;4.65;2.60;;;;;;;3.85;55.91;102811.09;4977730;28;20046;-82
2023/02/28 08:33:42;;;;;;;14.48;5.40;;;;;;;3.76;54.10;102808.91;4988827;28;20121;-82
2023/02/28 08:36:08;;;;;;;5.78;3.35;;;;;;;3.97;52.30;102811.50;4981459;28;20505;-82
2023/02/28 08:38:35;;;;;;;6.53;2.95;;;;;;;3.97;52.35;102814.88;4970654;28;20086;-82
2023/02/28 08:41:06;;;;;;;6.68;3.47;;;;;;;4.41;52.99;102809.63;4953766;28;20490;-82
2023/02/28 08:43:33;;;;;;;6.63;2.40;;;;;;;4.68;50.49;102802.41;4963819;28;20037;-81
2023/02/28 08:45:58;;;;;;;8.30;2.85;;;;;;;4.47;50.40;102809.34;4971003;28;20586;-81
2023/02/28 08:48:25;;;;;;;5.30;2.45;;;;;;;4.91;49.99;102804.84;4968085;28;20039;-80
2023/02/28 08:50:56;;;;;;;6.05;2.30;;;;;;;4.99;48.99;102806.19;4988395;28;20770;-81
2023/02/28 08:53:22;;;;;;;5.65;2.83;;;;;;;5.06;48.84;102793.88;4970805;28;20034;-81
2023/02/28 08:55:54;;;;;;;8.13;3.22;;;;;;;4.83;48.37;102798.31;4969888;28;20035;-80
2023/02/28 08:58:20;;;;;;;9.88;2.30;;;;;;;5.22;47.39;102799.13;4992197;28;20129;-80
2023/02/28 09:00:45;;;;;;;5.68;2.88;;;;;;;5.05;48.06;102797.34;4972673;28;20044;-80
2023/02/28 09:03:11;;;;;;;7.10;3.00;;;;;;;5.47;47.47;102802.19;4973514;28;20567;-82
2023/02/28 09:05:36;;;;;;;3.83;2.15;;;;;;;5.30;45.26;102799.59;4973856;28;20066;-80
2023/02/28 09:08:02;;;;;;;4.10;1.85;;;;;;;5.28;46.02;102798.00;4969984;28;20053;-80
2023/02/28 09:10:27;;;;;;;5.85;1.90;;;;;;;5.11;45.46;102799.63;4970966;28;20046;-81
2023/02/28 09:12:52;;;;;;;4.82;2.88;;;;;;;4.98;45.25;102806.25;4967582;28;20038;-80
2023/02/28 09:15:18;;;;;;;6.72;2.40;;;;;;;5.23;46.13;102801.63;4968666;28;23301;-79
2023/02/28 09:17:43;;;;;;;6.05;2.22;;;;;;;5.29;45.44;102794.53;4954770;28;20046;-81
2023/02/28 09:20:10;;;;;;;7.28;2.85;;;;;;;4.66;45.66;102796.50;4983019;28;20038;-80
2023/02/28 09:22:35;;;;;;;4.93;2.22;;;;;;;4.68;47.05;102793.88;4969026;28;20031;-81
2023/02/28 09:25:00;;;;;;;4.60;2.50;;;;;;;4.25;46.09;102800.91;4956829;28;20039;-80
2023/02/28 09:27:26;;;;;;;6.70;2.67;;;;;;;4.25;46.35;102803.47;4972006;28;20030;-80
2023/02/28 09:29:51;;;;;;;6.38;2.33;;;;;;;3.99;46.62;102790.00;4959167;28;20035;-81
2023/02/28 09:32:17;;;;;;;6.07;2.20;;;;;;;3.67;47.21;102794.75;4971982;28;20046;-81
2023/02/28 09:34:43;;;;;;;6.85;2.38;;;;;;;3.25;48.09;102784.44;4975994;28;20039;-80
2023/02/28 09:37:08;;;;;;;3.33;2.20;;;;;;;3.25;48.55;102789.59;4986071;28;20042;-79
2023/02/28 09:39:34;;;;;;;4.43;1.80;;;;;;;3.12;47.56;102791.78;4972516;28;20027;-79
2023/02/28 09:42:01;;;;;;;7.47;2.30;;;;;;;2.80;49.60;102793.81;4954332;28;20043;-78
2023/02/28 09:44:40;;;;;;;5.32;2.55;;;;;;;2.75;50.43;102793.19;4984232;28;20592;-80
2023/02/28 09:47:27;;;;;;;3.75;2.00;;;;;;;2.49;49.84;102797.50;4969295;28;20037;-79
2023/02/28 09:49:52;;;;;;;3.80;2.20;;;;;;;2.53;50.83;102790.56;4987420;28;20322;-81
2023/02/28 09:52:24;;;;;;;5.10;2.60;;;;;;;2.30;50.74;102799.06;4955904;28;20601;-80
2023/02/28 09:54:50;;;;;;;4.83;2.70;;;;;;;2.38;52.03;102791.09;4972313;28;20066;-80
2023/02/28 09:57:39;;;;;;;6.60;2.15;;;;;;;2.67;52.80;102782.34;4974797;28;20039;-78
2023/02/28 10:00:26;;;;;;;4.43;2.10;;;;;;;2.69;50.67;102784.00;4971298;28;20093;-79
2023/02/28 10:03:30;;;;;;;5.13;2.25;;;;;;;3.03;50.90;102781.88;4971283;28;20130;-80
2023/02/28 10:06:10;;;;;;;4.38;2.35;;;;;;;3.12;49.41;102787.47;4954512;28;20466;-78
2023/02/28 10:09:09;;;;;;;5.35;2.75;;;;;;;3.08;49.72;102790.22;4987375;28;20054;-79
2023/02/28 10:11:37;;;;;;;4.80;1.88;;;;;;;3.04;49.73;102781.00;4986041;28;20049;-80
2023/02/28 10:14:14;;;;;;;2.92;1.65;;;;;;;2.77;47.99;102783.69;4971352;28;20097;-81
2023/02/28 10:16:51;;;;;;;2.63;1.73;;;;;;;2.73;47.30;102777.84;4981244;28;20418;-80
2023/02/28 10:19:45;;;;;;;2.20;1.42;;;;;;;2.65;47.50;102794.38;4952703;28;20039;-80
2023/02/28 10:22:15;;;;;;;;;;;;;;;2.67;48.87;102785.75;4982930;28;21753;-80
2023/02/28 10:24:54;;;;;;;4.70;1.70;;;;;;;2.84;48.79;102786.84;4973290;28;19964;-77
2023/02/28 10:27:28;;;;;;;2.90;1.70;;;;;;;3.08;49.00;102779.97;4969166;28;20979;-81
2023/02/28 10:29:56;;;;;;;4.15;1.55;;;;;;;3.06;47.72;102781.75;4957301;28;20086;-78
2023/02/28 10:32:29;;;;;;;3.65;1.77;;;;;;;2.78;47.23;102787.09;4985557;28;20601;-80
2023/02/28 10:35:31;;;;;;;5.47;1.88;;;;;;;2.97;48.22;102787.25;4984295;28;20038;-79
2023/02/28 10:37:59;;;;;;;3.35;1.75;;;;;;;2.81;47.16;102787.81;4917892;29;20064;-79
2023/02/28 10:40:24;;;;;;;5.75;2.20;;;;;;;2.65;47.20;102784.13;4965853;28;20043;-80
2023/02/28 10:43:02;;;;;;;5.15;2.17;;;;;;;2.50;47.52;102778.66;4980697;28;20045;-81
2023/02/28 10:45:31;;;;;;;4.50;1.60;;;;;;;2.56;47.81;102780.16;4952456;28;20042;-82
2023/02/28 10:48:04;;;;;;;3.05;1.70;;;;;;;2.65;47.33;102772.16;4961724;28;20034;-81
2023/02/28 10:50:54;;;;;;;3.10;1.65;;;;;;;2.72;48.82;102777.91;4990402;28;20515;-81
2023/02/28 10:53:25;;;;;;;3.88;1.77;;;;;;;2.80;48.19;102777.63;4960401;28;20386;-82
2023/02/28 10:56:16;;;;;;;3.85;2.00;;;;;;;2.81;47.51;102769.06;4986263;28;20054;-79
2023/02/28 10:59:03;;;;;;;3.80;1.85;;;;;;;2.99;48.90;102765.78;4957481;28;20114;-83
2023/02/28 11:01:31;;;;;;;5.22;1.80;;;;;;;3.12;48.75;102758.44;4973899;28;20046;-81
2023/02/28 11:03:57;;;;;;;3.08;2.15;;;;;;;3.20;49.24;102761.56;4975190;28;20038;-82
2023/02/28 11:06:28;;;;;;;3.45;2.20;;;;;;;3.15;49.76;102750.66;4991645;28;20129;-82
2023/02/28 11:08:57;;;;;;;6.63;2.13;;;;;;;3.15;49.94;102762.66;4990368;28;20039;-81
2023/02/28 11:11:26;;;;;;;7.97;2.17;;;;;;;3.01;50.69;102761.41;4963774;28;20039;-81
2023/02/28 11:13:54;;;;;;;4.72;2.35;;;;;;;3.07;50.80;102755.22;4969987;28;21055;-80
2023/02/28 11:16:20;;;;;;;6.78;1.98;;;;;;;3.10;49.48;102755.13;4990849;28;20053;-81
2023/02/28 11:18:53;;;;;;;3.92;2.03;;;;;;;2.90;48.82;102754.16;4973708;28;20022;-80
2023/02/28 11:21:23;;;;;;;5.63;2.00;;;;;;;2.88;49.33;102760.22;4992430;28;20043;-82
2023/02/28 11:23:52;;;;;;;7.55;3.58;;;;;;;2.68;49.26;102751.56;4972790;28;20035;-82
2023/02/28 11:26:39;;;;;;;3.97;1.95;;;;;;;2.83;49.45;102747.59;4988058;28;20042;-82
2023/02/28 11:29:27;;;;;;;2.85;2.15;;;;;;;3.16;50.17;102744.59;4989545;28;20114;-82
2023/02/28 11:32:20;;;;;;;5.80;1.90;;;;;;;3.23;49.57;102746.03;4958333;28;20042;-81
2023/02/28 11:34:59;;;;;;;5.40;2.05;;;;;;;3.21;48.90;102747.84;4986816;28;20042;-80
2023/02/28 11:37:27;;;;;;;4.40;2.08;;;;;;;3.10;48.59;102744.84;4959982;28;20042;-82